Time;durP1;ratioP1;P1;durP2;ratioP2;P2;SDS_P1;SDS_P2;PMS_P1;PMS_P2;Temp;Humidity;BMP_temperature;BMP_pressure;BME280_temperature;BME280_humidity;BME280_pressure;Samples;Min_cycle;Max_cycle;Signal;HPM_P1;HPM_P2
2024/02/20 00:00:34;;;;;;;4.50;3.77;;;8.90;67.80;;;;;;4979044;28;20718;-64
2024/02/20 00:03:01;;;;;;;4.27;3.40;;;8.80;68.70;;;;;;4973747;28;20237;-64
2024/02/20 00:05:28;;;;;;;4.27;3.43;;;8.80;68.70;;;;;;4974070;28;20296;-63
2024/02/20 00:07:55;;;;;;;3.80;3.40;;;8.90;69.20;;;;;;4974137;28;20224;-63
2024/02/20 00:10:22;;;;;;;3.73;3.43;;;8.90;68.50;;;;;;4974580;28;20236;-64
2024/02/20 00:12:49;;;;;;;3.20;2.90;;;8.90;68.40;;;;;;4974435;28;20292;-64
2024/02/20 00:15:15;;;;;;;5.03;3.37;;;8.90;67.90;;;;;;4973822;28;20304;-64
2024/02/20 00:17:42;;;;;;;4.47;3.60;;;8.80;68.70;;;;;;4977345;28;20221;-63
2024/02/20 00:20:08;;;;;;;4.60;3.27;;;8.90;67.50;;;;;;4970008;28;20300;-64
2024/02/20 00:22:35;;;;;;;4.40;3.40;;;8.90;67.10;;;;;;4974146;28;20310;-64
2024/02/20 00:25:02;;;;;;;4.63;2.87;;;8.90;67.10;;;;;;4973800;28;20204;-64
2024/02/20 00:27:31;;;;;;;4.03;3.17;;;8.90;67.10;;;;;;4974629;28;20202;-64
2024/02/20 00:29:57;;;;;;;4.83;3.20;;;8.90;67.10;;;;;;4974161;28;20328;-64
2024/02/20 00:32:24;;;;;;;4.23;2.63;;;9.00;67.10;;;;;;4974416;28;20486;-64
2024/02/20 00:34:50;;;;;;;3.43;3.10;;;8.90;67.10;;;;;;4974288;28;20217;-64
2024/02/20 00:37:17;;;;;;;3.67;2.90;;;8.90;67.10;;;;;;4974453;28;20211;-63
2024/02/20 00:39:44;;;;;;;3.27;2.97;;;8.90;67.10;;;;;;4973519;28;20263;-64
2024/02/20 00:42:10;;;;;;;3.40;2.83;;;9.00;67.00;;;;;;4973695;28;20241;-64
2024/02/20 00:44:37;;;;;;;5.83;3.20;;;8.90;67.80;;;;;;4973097;28;20205;-63
2024/02/20 00:47:05;;;;;;;3.90;2.90;;;9.00;67.20;;;;;;4973463;28;20215;-64
2024/02/20 00:49:32;;;;;;;3.67;3.07;;;9.00;65.40;;;;;;4973675;28;20268;-64
2024/02/20 00:51:58;;;;;;;3.57;3.10;;;9.00;65.60;;;;;;4977197;28;20271;-64
2024/02/20 00:54:25;;;;;;;5.17;3.20;;;9.00;64.90;;;;;;4972751;28;20271;-64
2024/02/20 00:56:51;;;;;;;2.83;2.63;;;9.00;65.70;;;;;;4973392;28;20214;-64
2024/02/20 00:59:18;;;;;;;3.00;2.70;;;9.10;65.20;;;;;;4973569;28;20280;-64
2024/02/20 01:01:44;;;;;;;3.83;2.90;;;9.20;64.40;;;;;;4973329;28;20287;-64
2024/02/20 01:04:11;;;;;;;4.00;3.10;;;9.10;64.70;;;;;;4972422;28;20392;-64
2024/02/20 01:06:39;;;;;;;4.07;2.80;;;9.10;65.80;;;;;;4972996;28;20256;-64
2024/02/20 01:09:05;;;;;;;3.23;2.40;;;8.90;66.50;;;;;;4973525;28;20262;-64
2024/02/20 01:11:32;;;;;;;3.10;2.33;;;8.80;67.00;;;;;;4973146;28;20314;-64
2024/02/20 01:13:59;;;;;;;3.47;2.60;;;8.80;65.90;;;;;;4973590;28;20216;-64
2024/02/20 01:16:25;;;;;;;2.37;2.17;;;8.70;65.90;;;;;;4972066;28;20261;-64
2024/02/20 01:18:52;;;;;;;3.10;2.23;;;8.60;64.80;;;;;;4973412;28;20250;-64
2024/02/20 01:21:19;;;;;;;2.30;2.20;;;8.70;64.20;;;;;;4968839;28;20224;-64
2024/02/20 01:23:45;;;;;;;2.60;1.93;;;8.60;63.30;;;;;;4973279;28;20216;-64
2024/02/20 01:26:14;;;;;;;2.80;2.03;;;8.50;63.90;;;;;;4972513;28;20267;-64
2024/02/20 01:28:41;;;;;;;2.40;2.20;;;8.30;64.60;;;;;;4973486;28;20276;-63
2024/02/20 01:31:08;;;;;;;2.17;1.97;;;8.40;64.00;;;;;;4973319;28;20217;-64
2024/02/20 01:33:34;;;;;;;1.97;1.87;;;8.50;63.40;;;;;;4972956;28;20585;-64
2024/02/20 01:36:01;;;;;;;1.93;1.80;;;8.40;63.60;;;;;;4972331;28;20217;-64
2024/02/20 01:38:27;;;;;;;2.20;2.10;;;8.40;64.20;;;;;;4973045;28;20734;-63
2024/02/20 01:40:54;;;;;;;2.23;2.13;;;8.40;64.40;;;;;;4972673;28;20557;-63
2024/02/20 01:43:21;;;;;;;2.57;2.00;;;8.30;65.00;;;;;;4976601;28;20216;-63
2024/02/20 01:45:47;;;;;;;2.33;2.13;;;8.40;64.40;;;;;;4972548;28;20220;-63
2024/02/20 01:48:14;;;;;;;1.90;1.80;;;8.30;65.10;;;;;;4972633;28;20236;-63
2024/02/20 01:50:40;;;;;;;2.40;2.20;;;8.40;65.50;;;;;;4972835;28;20323;-63
2024/02/20 01:53:07;;;;;;;2.30;2.10;;;8.30;66.00;;;;;;4972481;28;20236;-64
2024/02/20 01:55:33;;;;;;;2.60;2.23;;;8.30;66.50;;;;;;4971914;28;20217;-63
2024/02/20 01:58:00;;;;;;;2.43;2.23;;;8.30;66.50;;;;;;4972310;28;20276;-63
2024/02/20 02:00:27;;;;;;;3.50;2.27;;;8.30;67.40;;;;;;4976746;28;20639;-64
2024/02/20 02:02:53;;;;;;;2.60;2.40;;;8.50;66.70;;;;;;4973013;28;20671;-63
2024/02/20 02:05:20;;;;;;;2.87;2.60;;;8.40;67.40;;;;;;4972322;28;20208;-64
2024/02/20 02:07:46;;;;;;;2.50;2.30;;;8.40;67.50;;;;;;4972337;28;20271;-64
2024/02/20 02:10:13;;;;;;;2.53;2.33;;;8.30;67.90;;;;;;4972089;28;20221;-63
2024/02/20 02:12:39;;;;;;;3.07;2.83;;;8.40;68.20;;;;;;4972517;28;20232;-64
2024/02/20 02:15:07;;;;;;;2.50;2.30;;;8.30;68.60;;;;;;4975251;28;20227;-64
2024/02/20 02:17:33;;;;;;;2.47;2.27;;;8.30;68.30;;;;;;4978679;28;20301;-64
2024/02/20 02:20:00;;;;;;;2.30;2.07;;;8.30;68.70;;;;;;4983403;28;20210;-64
2024/02/20 02:22:26;;;;;;;2.73;2.20;;;8.30;68.90;;;;;;4978399;28;20236;-64
2024/02/20 02:24:53;;;;;;;2.17;1.97;;;8.30;68.70;;;;;;4978144;28;20209;-64
2024/02/20 02:27:19;;;;;;;2.23;2.03;;;8.30;67.80;;;;;;4978623;28;20216;-64
2024/02/20 02:29:46;;;;;;;1.97;1.87;;;8.30;67.20;;;;;;4978955;28;20290;-64
2024/02/20 02:32:13;;;;;;;2.00;1.80;;;8.30;66.50;;;;;;4978673;28;20259;-64
2024/02/20 02:34:39;;;;;;;2.00;1.90;;;8.30;66.40;;;;;;4978333;28;20295;-64
2024/02/20 02:37:06;;;;;;;4.13;1.90;;;8.40;66.20;;;;;;4977218;28;20262;-64
2024/02/20 02:39:33;;;;;;;2.13;1.80;;;8.30;66.50;;;;;;4979319;28;20667;-64
2024/02/20 02:41:59;;;;;;;1.80;1.70;;;8.20;66.40;;;;;;4978168;28;20666;-64
2024/02/20 02:44:26;;;;;;;1.77;1.57;;;8.20;66.40;;;;;;4978737;28;20717;-64
2024/02/20 02:46:52;;;;;;;2.27;1.90;;;8.30;66.50;;;;;;4978695;28;20213;-64
2024/02/20 02:49:20;;;;;;;1.77;1.67;;;8.30;66.20;;;;;;4978863;28;20235;-64
2024/02/20 02:51:47;;;;;;;1.67;1.57;;;8.40;65.70;;;;;;4978217;28;20238;-64
2024/02/20 02:54:13;;;;;;;1.97;1.87;;;8.40;65.60;;;;;;4978381;28;20321;-64
2024/02/20 02:56:39;;;;;;;1.97;1.80;;;8.30;65.40;;;;;;4977784;28;20262;-64
2024/02/20 02:59:06;;;;;;;1.83;1.73;;;8.40;65.30;;;;;;4978505;28;20256;-64
2024/02/20 03:01:33;;;;;;;1.90;1.80;;;8.20;66.10;;;;;;4977444;28;20227;-64
2024/02/20 03:04:00;;;;;;;1.87;1.77;;;8.30;65.80;;;;;;4978278;28;20276;-64
2024/02/20 03:06:26;;;;;;;1.73;1.63;;;8.20;65.80;;;;;;4979139;28;20219;-64
2024/02/20 03:08:53;;;;;;;2.00;1.90;;;8.10;66.10;;;;;;4981878;28;20301;-64
2024/02/20 03:11:20;;;;;;;1.83;1.73;;;8.20;65.80;;;;;;4977638;28;20333;-64
2024/02/20 03:13:47;;;;;;;1.97;1.87;;;8.10;67.10;;;;;;4978838;28;20220;-63
2024/02/20 03:16:13;;;;;;;2.00;1.90;;;8.10;66.40;;;;;;4978493;28;20216;-64
2024/02/20 03:18:42;;;;;;;2.27;1.93;;;8.10;66.40;;;;;;4976948;28;20282;-63
2024/02/20 03:21:08;;;;;;;2.20;2.00;;;8.20;67.10;;;;;;4981163;28;20227;-63
2024/02/20 03:23:35;;;;;;;2.00;1.90;;;8.10;66.10;;;;;;4977716;28;20266;-63
2024/02/20 03:26:03;;;;;;;1.93;1.83;;;8.10;66.40;;;;;;4976817;28;20220;-63
2024/02/20 03:28:29;;;;;;;1.60;1.50;;;8.20;66.40;;;;;;4975601;28;20222;-63
2024/02/20 03:30:56;;;;;;;2.00;1.90;;;8.20;65.80;;;;;;4975827;28;20609;-63
2024/02/20 03:33:23;;;;;;;1.90;1.70;;;8.10;66.40;;;;;;4975193;28;20209;-64
2024/02/20 03:35:49;;;;;;;1.80;1.70;;;8.10;66.40;;;;;;4974678;28;20223;-64
2024/02/20 03:38:16;;;;;;;2.50;2.30;;;8.20;66.40;;;;;;4975558;28;20272;-63
2024/02/20 03:40:43;;;;;;;2.30;2.10;;;8.30;66.50;;;;;;4973939;28;20299;-63
2024/02/20 03:43:09;;;;;;;2.40;2.07;;;8.20;66.20;;;;;;4975163;28;20312;-63
2024/02/20 03:45:36;;;;;;;2.20;2.03;;;8.10;66.40;;;;;;4974889;28;20205;-63
2024/02/20 03:48:04;;;;;;;2.40;1.90;;;8.00;66.80;;;;;;4974643;28;20208;-63
2024/02/20 03:50:31;;;;;;;2.00;1.90;;;8.20;66.40;;;;;;4974263;28;20232;-63
2024/02/20 03:52:58;;;;;;;2.67;2.07;;;8.20;66.40;;;;;;4967203;28;20228;-65
2024/02/20 03:55:25;;;;;;;2.30;2.20;;;8.20;66.40;;;;;;4974764;28;20212;-63
2024/02/20 03:57:51;;;;;;;2.50;1.80;;;8.20;66.40;;;;;;4974243;28;20230;-64
2024/02/20 04:00:17;;;;;;;2.17;1.93;;;8.20;66.90;;;;;;4978186;28;20236;-65
2024/02/20 04:02:44;;;;;;;2.40;2.20;;;8.10;66.90;;;;;;4973214;28;20271;-65
2024/02/20 04:05:12;;;;;;;2.40;2.13;;;8.20;67.40;;;;;;4974787;28;20220;-65
2024/02/20 04:07:39;;;;;;;2.70;2.50;;;8.00;67.90;;;;;;4974338;28;20223;-65
2024/02/20 04:10:07;;;;;;;2.40;2.20;;;8.00;68.40;;;;;;4973314;28;20796;-65
2024/02/20 04:12:33;;;;;;;2.23;2.03;;;8.00;68.50;;;;;;4973033;28;20226;-65
2024/02/20 04:15:00;;;;;;;2.30;2.10;;;8.10;68.80;;;;;;4974281;28;20268;-64
2024/02/20 04:17:26;;;;;;;2.40;2.23;;;8.00;68.80;;;;;;4973883;28;20220;-63
2024/02/20 04:19:53;;;;;;;2.37;2.17;;;8.00;69.00;;;;;;4974574;28;20212;-65
2024/02/20 04:22:20;;;;;;;2.73;2.53;;;8.00;68.60;;;;;;4973334;28;20232;-65
2024/02/20 04:24:46;;;;;;;3.00;2.70;;;8.00;68.40;;;;;;4973450;28;20274;-65
2024/02/20 04:27:13;;;;;;;2.70;2.60;;;8.00;68.10;;;;;;4973413;28;20674;-64
2024/02/20 04:29:40;;;;;;;2.73;2.40;;;8.10;67.70;;;;;;4973839;28;20271;-65
2024/02/20 04:32:06;;;;;;;2.87;2.43;;;8.10;68.80;;;;;;4974872;28;20294;-65
2024/02/20 04:34:33;;;;;;;2.47;2.27;;;8.10;68.50;;;;;;4973201;28;20271;-64
2024/02/20 04:36:59;;;;;;;3.17;2.80;;;8.00;69.00;;;;;;4973792;28;20212;-65
2024/02/20 04:39:26;;;;;;;3.03;2.43;;;8.10;69.70;;;;;;4973495;28;20647;-65
2024/02/20 04:41:52;;;;;;;3.20;2.90;;;8.00;69.10;;;;;;4973134;28;20574;-65
2024/02/20 04:44:19;;;;;;;2.73;2.40;;;8.00;70.00;;;;;;4973588;28;20275;-64
2024/02/20 04:46:45;;;;;;;3.17;2.80;;;8.10;70.10;;;;;;4973194;28;20279;-64
2024/02/20 04:49:12;;;;;;;3.70;2.87;;;8.10;69.80;;;;;;4974212;28;20259;-65
2024/02/20 04:51:38;;;;;;;3.03;2.73;;;7.90;69.50;;;;;;4984108;28;20287;-65
2024/02/20 04:54:05;;;;;;;3.40;3.10;;;7.90;71.20;;;;;;4973660;28;20215;-65
2024/02/20 04:56:31;;;;;;;3.13;2.83;;;8.00;70.80;;;;;;4972843;28;20216;-65
2024/02/20 04:58:58;;;;;;;2.80;2.60;;;8.00;70.80;;;;;;4974213;28;20235;-65
2024/02/20 05:01:24;;;;;;;4.00;3.10;;;8.00;71.40;;;;;;4973249;28;20773;-64
2024/02/20 05:03:51;;;;;;;3.73;3.07;;;8.00;71.70;;;;;;4973574;28;20228;-65
2024/02/20 05:06:17;;;;;;;3.40;3.00;;;7.90;71.40;;;;;;4973296;28;20282;-65
2024/02/20 05:08:44;;;;;;;3.37;3.10;;;7.90;72.20;;;;;;4972653;28;20217;-65
2024/02/20 05:11:10;;;;;;;4.10;3.27;;;7.90;71.70;;;;;;4972740;28;20677;-64
2024/02/20 05:13:37;;;;;;;4.13;3.07;;;7.90;71.40;;;;;;4973084;28;20675;-65
2024/02/20 05:16:03;;;;;;;3.83;3.27;;;7.80;71.90;;;;;;4972157;28;20314;-65
2024/02/20 05:18:30;;;;;;;4.30;3.53;;;7.90;71.50;;;;;;4972833;28;20664;-65
2024/02/20 05:20:56;;;;;;;3.77;3.10;;;7.90;71.80;;;;;;4972301;28;20947;-64
2024/02/20 05:23:23;;;;;;;5.50;3.80;;;7.80;73.10;;;;;;4975598;28;20567;-65
2024/02/20 05:25:49;;;;;;;4.07;3.30;;;7.70;74.40;;;;;;4972617;28;20209;-64
2024/02/20 05:28:18;;;;;;;4.23;3.10;;;7.70;73.80;;;;;;4972973;28;20213;-64
2024/02/20 05:30:45;;;;;;;4.23;3.77;;;7.70;73.60;;;;;;4972853;28;20263;-64
2024/02/20 05:33:12;;;;;;;4.70;3.70;;;7.80;74.00;;;;;;4973163;28;20286;-64
2024/02/20 05:35:38;;;;;;;3.93;3.63;;;7.80;72.70;;;;;;4972198;28;20204;-65
2024/02/20 05:38:06;;;;;;;3.90;3.60;;;7.80;74.70;;;;;;4966142;28;20228;-65
2024/02/20 05:40:33;;;;;;;3.93;3.63;;;7.80;74.00;;;;;;4976290;28;20199;-64
2024/02/20 05:42:59;;;;;;;3.87;3.57;;;7.90;73.60;;;;;;4972666;28;20275;-65
2024/02/20 05:45:25;;;;;;;4.17;3.77;;;8.00;72.90;;;;;;4972805;28;20211;-64
2024/02/20 05:47:52;;;;;;;3.90;3.50;;;8.10;72.80;;;;;;4972072;28;20279;-64
2024/02/20 05:50:19;;;;;;;4.63;4.17;;;8.10;72.50;;;;;;4972058;28;20224;-65
2024/02/20 05:52:45;;;;;;;3.83;3.53;;;8.00;72.50;;;;;;4972504;28;20342;-65
2024/02/20 05:55:12;;;;;;;4.13;3.73;;;7.90;73.20;;;;;;4972705;28;20606;-65
2024/02/20 05:57:39;;;;;;;3.70;3.33;;;7.90;72.80;;;;;;4972305;28;20285;-64
2024/02/20 06:00:05;;;;;;;4.17;3.67;;;7.90;72.90;;;;;;4972973;28;20231;-65
2024/02/20 06:02:32;;;;;;;4.17;3.77;;;7.80;72.60;;;;;;4972671;28;20294;-65
2024/02/20 06:04:59;;;;;;;4.00;3.33;;;7.70;73.70;;;;;;4972805;28;20208;-65
2024/02/20 06:07:25;;;;;;;4.10;3.70;;;7.70;73.90;;;;;;4972118;28;20212;-64
2024/02/20 06:09:52;;;;;;;4.37;3.70;;;7.60;74.10;;;;;;4972609;28;20220;-64
2024/02/20 06:12:18;;;;;;;5.97;3.70;;;7.80;74.10;;;;;;4972246;28;20649;-65
2024/02/20 06:14:45;;;;;;;5.83;4.30;;;7.80;72.80;;;;;;4976122;28;20215;-64
2024/02/20 06:17:11;;;;;;;6.03;4.00;;;7.60;72.40;;;;;;4971392;28;20637;-65
2024/02/20 06:19:38;;;;;;;4.43;3.90;;;7.50;73.10;;;;;;4972113;28;20589;-64
2024/02/20 06:22:05;;;;;;;4.30;3.90;;;7.70;73.20;;;;;;4970983;28;20702;-64
2024/02/20 06:24:32;;;;;;;6.07;3.70;;;7.70;72.40;;;;;;4972649;28;20245;-65
2024/02/20 06:26:58;;;;;;;4.93;4.00;;;7.60;71.70;;;;;;4969464;28;20219;-65
2024/02/20 06:29:25;;;;;;;4.40;3.70;;;7.70;72.20;;;;;;4971026;28;20313;-64
2024/02/20 06:31:52;;;;;;;5.47;4.60;;;7.80;71.70;;;;;;4975631;28;20515;-65
2024/02/20 06:34:19;;;;;;;4.83;4.17;;;7.70;72.60;;;;;;4974079;28;20283;-65
2024/02/20 06:36:45;;;;;;;6.17;4.10;;;7.90;71.30;;;;;;4971603;28;20208;-64
2024/02/20 06:39:12;;;;;;;5.20;4.40;;;7.90;71.60;;;;;;4971994;28;20251;-65
2024/02/20 06:41:38;;;;;;;5.37;4.13;;;7.80;72.70;;;;;;4971765;28;20218;-65
2024/02/20 06:44:05;;;;;;;2.87;2.67;;;7.80;72.80;;;;;;4972151;28;20243;-64
2024/02/20 06:46:31;;;;;;;2.77;2.57;;;7.70;67.40;;;;;;4972267;28;20224;-65
2024/02/20 06:48:58;;;;;;;3.67;2.63;;;7.70;67.60;;;;;;4975193;28;20209;-64
2024/02/20 06:51:26;;;;;;;2.73;2.50;;;7.60;68.20;;;;;;4972241;28;20243;-64
2024/02/20 06:53:54;;;;;;;2.50;2.30;;;7.60;66.70;;;;;;4972013;28;20222;-65
2024/02/20 06:56:21;;;;;;;3.40;3.10;;;7.60;67.70;;;;;;4971618;28;20580;-65
2024/02/20 06:58:47;;;;;;;2.10;2.00;;;7.40;68.00;;;;;;4972084;28;20208;-64
2024/02/20 07:01:14;;;;;;;2.50;2.20;;;7.30;68.60;;;;;;4972635;28;20785;-64
2024/02/20 07:03:41;;;;;;;2.80;2.33;;;7.30;68.80;;;;;;4975884;28;20216;-64
2024/02/20 07:06:07;;;;;;;3.00;2.50;;;7.40;69.80;;;;;;4980476;28;20223;-65
2024/02/20 07:08:34;;;;;;;2.80;2.60;;;7.50;69.70;;;;;;4975411;28;20621;-65
2024/02/20 07:11:01;;;;;;;2.97;2.67;;;7.50;70.30;;;;;;4975752;28;20239;-65
2024/02/20 07:13:27;;;;;;;2.93;2.73;;;7.60;70.50;;;;;;4974940;28;20215;-64
2024/02/20 07:15:54;;;;;;;5.63;2.93;;;7.70;69.90;;;;;;4975798;28;20274;-65
2024/02/20 07:18:20;;;;;;;3.47;3.17;;;7.80;70.00;;;;;;4975532;28;20228;-65
2024/02/20 07:20:47;;;;;;;5.00;3.30;;;7.80;69.10;;;;;;4974182;28;20274;-65
2024/02/20 07:23:13;;;;;;;3.43;3.13;;;7.80;69.50;;;;;;4969646;28;20597;-65
2024/02/20 07:25:40;;;;;;;3.90;3.60;;;7.80;69.90;;;;;;4973224;28;20224;-65
2024/02/20 07:28:08;;;;;;;4.27;3.87;;;7.70;69.40;;;;;;4975314;28;20211;-65
2024/02/20 07:30:35;;;;;;;3.57;3.27;;;7.70;70.30;;;;;;4974797;28;20239;-65
2024/02/20 07:33:01;;;;;;;3.90;3.50;;;7.70;69.90;;;;;;4975314;28;20311;-65
2024/02/20 07:35:28;;;;;;;3.87;3.33;;;7.60;69.70;;;;;;4974883;28;20291;-65
2024/02/20 07:37:55;;;;;;;3.97;3.67;;;7.60;69.90;;;;;;4974650;28;20216;-65
2024/02/20 07:40:21;;;;;;;4.20;3.80;;;7.60;70.50;;;;;;4975491;28;20219;-65
2024/02/20 07:42:48;;;;;;;3.73;3.40;;;7.70;69.80;;;;;;4974500;28;20232;-65
2024/02/20 07:45:15;;;;;;;4.20;3.53;;;7.80;69.50;;;;;;4975115;28;20216;-65
2024/02/20 07:47:42;;;;;;;5.70;4.13;;;7.70;69.90;;;;;;4974735;28;20226;-65
2024/02/20 07:50:08;;;;;;;4.43;3.90;;;7.70;70.50;;;;;;4975503;28;20220;-65
2024/02/20 07:52:35;;;;;;;4.27;3.97;;;7.60;70.00;;;;;;4974656;28;20236;-65
2024/02/20 07:55:02;;;;;;;4.17;3.77;;;7.80;69.40;;;;;;4975060;28;20649;-65
2024/02/20 07:57:29;;;;;;;5.90;4.30;;;8.00;68.80;;;;;;4973864;28;20702;-65
2024/02/20 07:59:55;;;;;;;4.60;3.80;;;7.90;68.00;;;;;;4974080;28;20255;-65
2024/02/20 08:02:22;;;;;;;4.73;3.90;;;7.80;69.30;;;;;;4974003;28;20565;-65
2024/02/20 08:04:48;;;;;;;3.83;3.50;;;7.90;69.00;;;;;;4974412;28;20254;-65
2024/02/20 08:07:15;;;;;;;4.13;3.57;;;7.90;68.10;;;;;;4974598;28;20212;-64
2024/02/20 08:09:41;;;;;;;4.40;3.30;;;7.80;68.00;;;;;;4973847;28;20204;-65
2024/02/20 08:12:08;;;;;;;4.97;3.90;;;7.80;67.10;;;;;;4973969;28;20595;-65
2024/02/20 08:14:35;;;;;;;3.43;3.10;;;7.70;66.00;;;;;;4977794;28;20580;-65
2024/02/20 08:17:01;;;;;;;4.83;3.17;;;7.70;66.30;;;;;;4972955;28;20667;-65
2024/02/20 08:19:28;;;;;;;6.43;3.40;;;7.80;66.10;;;;;;4974445;28;20223;-65
2024/02/20 08:21:54;;;;;;;5.80;3.67;;;8.00;65.50;;;;;;4973555;28;20302;-65
2024/02/20 08:24:21;;;;;;;3.70;3.10;;;8.00;65.30;;;;;;4974140;28;20666;-65
2024/02/20 08:26:49;;;;;;;5.77;3.60;;;7.90;65.30;;;;;;4974334;28;20215;-65
2024/02/20 08:29:15;;;;;;;5.23;4.03;;;7.80;66.00;;;;;;4973745;28;20335;-65
2024/02/20 08:31:42;;;;;;;5.60;3.80;;;7.80;66.10;;;;;;4977939;28;20239;-65
2024/02/20 08:34:09;;;;;;;4.37;3.20;;;7.80;66.10;;;;;;4974490;28;20302;-65
2024/02/20 08:36:37;;;;;;;4.93;3.63;;;7.70;66.00;;;;;;4973927;28;20228;-65
2024/02/20 08:39:04;;;;;;;4.23;3.57;;;7.70;66.50;;;;;;4974182;28;20212;-65
2024/02/20 08:41:31;;;;;;;5.63;3.60;;;7.80;66.10;;;;;;4974314;28;20228;-65
2024/02/20 08:43:58;;;;;;;4.60;3.27;;;7.90;65.90;;;;;;4965891;28;20207;-65
2024/02/20 08:46:25;;;;;;;7.17;4.10;;;7.90;65.50;;;;;;4973595;28;20208;-65
2024/02/20 08:48:52;;;;;;;5.13;3.77;;;8.40;64.90;;;;;;4974602;28;20692;-65
2024/02/20 08:51:18;;;;;;;8.40;3.50;;;9.40;61.50;;;;;;4974819;28;20260;-65
2024/02/20 08:53:46;;;;;;;4.20;3.80;;;9.70;59.70;;;;;;4974399;28;20218;-65
2024/02/20 08:56:13;;;;;;;5.87;3.30;;;9.20;59.40;;;;;;4973718;28;20739;-65
2024/02/20 08:58:39;;;;;;;5.53;3.30;;;9.00;60.30;;;;;;4974808;28;20208;-65
2024/02/20 09:01:06;;;;;;;8.20;3.63;;;8.80;60.30;;;;;;4976065;28;20204;-65
2024/02/20 09:03:32;;;;;;;6.97;3.47;;;8.60;59.40;;;;;;4974259;28;20535;-65
2024/02/20 09:05:59;;;;;;;6.13;3.50;;;8.50;59.90;;;;;;4978224;28;20213;-64
2024/02/20 09:08:25;;;;;;;7.73;3.87;;;8.30;60.80;;;;;;4973526;28;20738;-65
2024/02/20 09:10:52;;;;;;;7.30;3.90;;;8.30;60.40;;;;;;4973382;28;20216;-65
2024/02/20 09:13:18;;;;;;;6.27;3.57;;;8.40;59.60;;;;;;4972158;28;20224;-65
2024/02/20 09:15:45;;;;;;;7.77;3.53;;;8.60;58.70;;;;;;4972511;28;20205;-65
2024/02/20 09:18:12;;;;;;;5.67;3.67;;;8.50;59.00;;;;;;4973309;28;20227;-65
2024/02/20 09:20:38;;;;;;;8.77;3.60;;;8.50;58.40;;;;;;4973054;28;20216;-65
2024/02/20 09:23:05;;;;;;;6.10;3.23;;;8.60;59.10;;;;;;4974547;28;20597;-65
2024/02/20 09:25:31;;;;;;;5.83;3.63;;;8.80;58.20;;;;;;4972234;28;20218;-65
2024/02/20 09:27:58;;;;;;;5.97;3.80;;;8.80;57.80;;;;;;4973047;28;20272;-65
2024/02/20 09:30:24;;;;;;;7.90;3.30;;;9.50;56.80;;;;;;4972305;28;20220;-65
2024/02/20 09:32:51;;;;;;;9.00;4.10;;;9.40;55.10;;;;;;4973011;28;20665;-64
2024/02/20 09:35:17;;;;;;;7.93;3.83;;;9.00;55.20;;;;;;4972118;28;20277;-65
2024/02/20 09:37:44;;;;;;;11.57;4.23;;;8.50;57.00;;;;;;4972996;28;20275;-65
2024/02/20 09:40:10;;;;;;;9.97;3.90;;;8.60;57.40;;;;;;4973785;28;20263;-65
2024/02/20 09:42:37;;;;;;;7.37;3.80;;;8.70;56.80;;;;;;4972645;28;20288;-65
2024/02/20 09:45:04;;;;;;;8.83;3.50;;;8.80;57.80;;;;;;4972225;28;20236;-65
2024/02/20 09:47:31;;;;;;;7.53;3.87;;;8.80;56.50;;;;;;4972714;28;20213;-65
2024/02/20 09:49:57;;;;;;;7.87;3.70;;;8.70;56.00;;;;;;4972710;28;20248;-66
2024/02/20 09:52:24;;;;;;;8.57;3.73;;;8.80;55.30;;;;;;4972908;28;20248;-65
2024/02/20 09:54:50;;;;;;;5.17;3.17;;;8.80;54.70;;;;;;4972522;28;20283;-65
2024/02/20 09:57:17;;;;;;;9.27;3.73;;;8.60;55.40;;;;;;4973502;28;20219;-65
2024/02/20 09:59:43;;;;;;;7.67;4.33;;;8.60;55.10;;;;;;4972167;28;20213;-65
2024/02/20 10:02:10;;;;;;;6.00;3.53;;;8.40;57.00;;;;;;4972490;28;20256;-65
2024/02/20 10:04:36;;;;;;;4.73;2.80;;;8.30;57.40;;;;;;4972431;28;20675;-64
2024/02/20 10:07:03;;;;;;;3.83;2.70;;;8.30;56.60;;;;;;4972685;28;20219;-65
2024/02/20 10:09:29;;;;;;;4.10;2.87;;;8.30;55.10;;;;;;4971821;28;20228;-65
2024/02/20 10:11:56;;;;;;;5.73;3.07;;;8.30;56.00;;;;;;4972279;28;20275;-65
2024/02/20 10:14:23;;;;;;;7.50;3.53;;;8.40;55.00;;;;;;4972445;28;20209;-65
2024/02/20 10:16:49;;;;;;;4.57;3.43;;;8.50;55.30;;;;;;4972514;28;20212;-65
2024/02/20 10:19:16;;;;;;;9.83;3.93;;;8.60;55.70;;;;;;4972568;28;20224;-65
2024/02/20 10:21:42;;;;;;;9.07;3.33;;;9.10;54.70;;;;;;4971379;28;20282;-65
2024/02/20 10:24:09;;;;;;;5.63;3.10;;;9.40;54.50;;;;;;4972411;28;20260;-65
2024/02/20 10:26:35;;;;;;;7.13;3.80;;;10.40;52.30;;;;;;4972356;28;20275;-65
2024/02/20 10:29:02;;;;;;;6.83;3.60;;;11.20;50.90;;;;;;4972640;28;20627;-65
2024/02/20 10:31:29;;;;;;;5.77;3.30;;;11.90;49.40;;;;;;4968853;28;20643;-65
2024/02/20 10:33:56;;;;;;;6.30;3.17;;;12.50;44.60;;;;;;4973426;28;20206;-65
2024/02/20 10:36:22;;;;;;;5.43;3.47;;;13.70;41.80;;;;;;4975283;28;20266;-65
2024/02/20 10:38:50;;;;;;;8.10;3.27;;;12.00;44.30;;;;;;4975747;28;20214;-65
2024/02/20 10:41:18;;;;;;;7.60;3.47;;;11.90;45.50;;;;;;4976253;28;20244;-65
2024/02/20 10:43:45;;;;;;;5.43;3.00;;;11.40;45.80;;;;;;4975671;28;20218;-65
2024/02/20 10:46:12;;;;;;;4.87;3.10;;;10.60;47.30;;;;;;4976575;28;20227;-65
2024/02/20 10:48:38;;;;;;;6.70;3.10;;;10.40;47.00;;;;;;4976348;28;20218;-65
2024/02/20 10:51:05;;;;;;;4.13;3.10;;;10.40;48.80;;;;;;4976407;28;20220;-65
2024/02/20 10:53:32;;;;;;;8.23;3.30;;;9.90;49.90;;;;;;4975231;28;20227;-65
2024/02/20 10:56:02;;;;;;;6.70;3.23;;;9.90;50.40;;;;;;4976107;28;20220;-65
2024/02/20 10:58:29;;;;;;;6.60;3.37;;;9.60;49.90;;;;;;4975051;28;20215;-65
2024/02/20 11:00:55;;;;;;;5.43;3.80;;;9.60;50.20;;;;;;4975025;28;20212;-65
2024/02/20 11:03:22;;;;;;;9.60;3.20;;;10.60;47.30;;;;;;4978529;28;20274;-65
2024/02/20 11:05:52;;;;;;;6.07;2.93;;;10.60;46.70;;;;;;4976600;28;20218;-65
2024/02/20 11:08:18;;;;;;;9.13;4.13;;;9.90;48.60;;;;;;4976030;28;20215;-65
2024/02/20 11:10:45;;;;;;;6.33;3.50;;;9.70;49.70;;;;;;4975669;28;20274;-65
2024/02/20 11:13:11;;;;;;;8.90;3.37;;;9.50;50.20;;;;;;4975032;28;20328;-64
2024/02/20 11:15:38;;;;;;;7.37;3.40;;;9.30;49.40;;;;;;4974914;28;20207;-65
2024/02/20 11:18:04;;;;;;;7.70;3.37;;;9.20;49.30;;;;;;4975570;28;20222;-65
2024/02/20 11:20:31;;;;;;;6.83;3.43;;;9.20;49.30;;;;;;4978355;28;20208;-65
2024/02/20 11:22:57;;;;;;;7.73;3.53;;;9.30;49.40;;;;;;4967456;28;20225;-65
2024/02/20 11:25:25;;;;;;;12.63;3.87;;;9.40;48.70;;;;;;4975434;28;20272;-64
2024/02/20 11:27:52;;;;;;;6.43;3.53;;;9.50;49.20;;;;;;4974681;28;20643;-64
2024/02/20 11:30:19;;;;;;;5.90;3.13;;;9.40;48.20;;;;;;4975664;28;20242;-65
2024/02/20 11:32:45;;;;;;;8.30;3.70;;;9.30;47.20;;;;;;4974369;28;20336;-65
2024/02/20 11:35:12;;;;;;;5.70;2.90;;;9.40;47.60;;;;;;4975115;28;20585;-64
2024/02/20 11:37:38;;;;;;;8.80;3.23;;;9.30;46.50;;;;;;4975333;28;20215;-65
2024/02/20 11:40:05;;;;;;;5.90;2.63;;;9.30;45.80;;;;;;4975113;28;20750;-65
2024/02/20 11:42:32;;;;;;;6.67;2.90;;;9.50;46.30;;;;;;4975163;28;20312;-65
2024/02/20 11:44:58;;;;;;;4.13;2.90;;;9.60;45.50;;;;;;4973971;28;20221;-64
2024/02/20 11:47:25;;;;;;;5.87;2.40;;;9.70;44.70;;;;;;4973929;28;20674;-65
2024/02/20 11:49:51;;;;;;;6.17;3.10;;;10.20;43.40;;;;;;4974939;28;20231;-65
2024/02/20 11:52:18;;;;;;;4.57;2.60;;;12.60;37.40;;;;;;4973787;28;20715;-65
2024/02/20 11:54:44;;;;;;;5.33;3.03;;;13.90;35.70;;;;;;4978568;28;20215;-65
2024/02/20 11:57:11;;;;;;;3.37;2.20;;;13.80;34.50;;;;;;4975087;28;20222;-65
2024/02/20 11:59:38;;;;;;;4.60;2.47;;;11.60;37.60;;;;;;4973391;28;20244;-65
2024/02/20 12:02:04;;;;;;;5.13;2.90;;;10.90;40.50;;;;;;4973555;28;20815;-65
2024/02/20 12:04:31;;;;;;;5.57;2.30;;;10.40;40.20;;;;;;4972870;28;20259;-65
2024/02/20 12:06:57;;;;;;;4.17;2.33;;;10.00;38.00;;;;;;4966959;28;20662;-65
2024/02/20 12:09:24;;;;;;;5.57;2.70;;;9.80;40.40;;;;;;4974910;28;20275;-65
2024/02/20 12:11:51;;;;;;;5.83;2.60;;;9.60;41.20;;;;;;4978454;28;20478;-65
2024/02/20 12:14:17;;;;;;;5.73;2.67;;;9.70;43.40;;;;;;4973860;28;20336;-64
2024/02/20 12:16:44;;;;;;;4.80;2.30;;;9.50;45.60;;;;;;4973924;28;20309;-65
2024/02/20 12:19:10;;;;;;;6.20;2.60;;;9.30;48.10;;;;;;4974209;28;20319;-65
2024/02/20 12:21:38;;;;;;;7.33;3.00;;;8.70;53.30;;;;;;4973081;28;20238;-65
2024/02/20 12:24:07;;;;;;;6.70;2.77;;;8.60;53.90;;;;;;4973861;28;20206;-64
2024/02/20 12:26:34;;;;;;;5.37;2.90;;;8.60;54.40;;;;;;4974066;28;20226;-65
2024/02/20 12:29:00;;;;;;;6.03;3.07;;;8.50;53.90;;;;;;4973445;28;20265;-65
2024/02/20 12:31:28;;;;;;;5.53;3.70;;;8.70;54.40;;;;;;4973848;28;20229;-64
2024/02/20 12:33:55;;;;;;;5.03;3.20;;;10.30;49.30;;;;;;4974153;28;20608;-65
2024/02/20 12:36:23;;;;;;;3.60;2.43;;;13.00;41.20;;;;;;4973897;28;20268;-65
2024/02/20 12:38:49;;;;;;;5.33;2.87;;;13.60;37.90;;;;;;4974202;28;20273;-65
2024/02/20 12:41:16;;;;;;;5.23;2.70;;;11.60;41.30;;;;;;4974619;28;20300;-64
2024/02/20 12:43:43;;;;;;;6.60;2.53;;;10.60;43.10;;;;;;4974521;28;20202;-65
2024/02/20 12:46:09;;;;;;;5.00;2.30;;;10.70;43.60;;;;;;4975889;28;20749;-64
2024/02/20 12:48:38;;;;;;;5.10;2.30;;;10.00;44.50;;;;;;4974109;28;20219;-65
2024/02/20 12:51:04;;;;;;;5.43;2.20;;;9.60;45.60;;;;;;4974393;28;20223;-65